createdAt,value
2022-10-23T00:02:36.705Z,17.83
2022-10-23T00:05:41.566Z,17.20
2022-10-23T00:08:45.941Z,18.00
2022-10-23T00:11:50.355Z,17.15
2022-10-23T00:14:52.154Z,17.23
2022-10-23T00:17:53.706Z,17.67
2022-10-23T00:20:56.382Z,18.08
2022-10-23T00:23:58.252Z,18.02
2022-10-23T00:26:59.829Z,17.27
2022-10-23T00:30:02.105Z,18.00
2022-10-23T00:33:04.003Z,17.50
2022-10-23T00:36:08.696Z,17.83
2022-10-23T00:39:10.426Z,17.42
2022-10-23T00:42:19.841Z,17.33
2022-10-23T00:45:27.186Z,17.05
2022-10-23T00:48:29.421Z,17.85
2022-10-23T00:51:40.957Z,17.23
2022-10-23T00:54:43.639Z,18.83
2022-10-23T00:57:48.536Z,17.33
2022-10-23T01:00:53.040Z,17.48
2022-10-23T01:03:54.830Z,17.60
2022-10-23T01:07:30.756Z,17.48
2022-10-23T01:11:05.775Z,19.15
2022-10-23T01:14:29.063Z,17.80
2022-10-23T01:17:42.468Z,17.50
2022-10-23T01:21:07.547Z,17.67
2022-10-23T01:24:58.215Z,16.92
2022-10-23T01:28:03.160Z,16.40
2022-10-23T01:31:11.727Z,17.62
2022-10-23T01:34:18.476Z,18.70
2022-10-23T01:37:27.408Z,17.87
2022-10-23T01:40:34.788Z,17.95
2022-10-23T01:44:10.197Z,17.92
2022-10-23T01:47:13.969Z,17.58
2022-10-23T01:50:17.316Z,17.37
2022-10-23T01:53:21.281Z,18.90
2022-10-23T01:56:28.858Z,17.75
2022-10-23T02:02:38.823Z,17.37
2022-10-23T02:05:40.765Z,18.23
2022-10-23T02:08:43.031Z,17.10
2022-10-23T02:11:54.643Z,16.37
2022-10-23T02:15:20.837Z,17.77
2022-10-23T02:18:37.474Z,16.70
2022-10-23T02:22:10.968Z,16.35
2022-10-23T02:25:24.514Z,17.45
2022-10-23T02:28:34.495Z,17.27
2022-10-23T02:31:36.687Z,17.83
2022-10-23T02:34:38.563Z,17.80
2022-10-23T02:37:40.456Z,17.12
2022-10-23T02:40:46.265Z,16.05
2022-10-23T02:44:01.324Z,17.98
2022-10-23T02:47:16.742Z,17.65
2022-10-23T02:50:30.671Z,18.12
2022-10-23T02:53:54.468Z,17.00
2022-10-23T02:57:05.251Z,17.05
2022-10-23T03:00:14.757Z,17.20
2022-10-23T03:03:22.492Z,17.37
2022-10-23T03:06:25.490Z,17.87
2022-10-23T03:09:27.289Z,16.10
2022-10-23T03:12:29.113Z,16.85
2022-10-23T03:15:31.507Z,17.35
2022-10-23T03:18:33.079Z,16.60
2022-10-23T03:21:34.751Z,17.40
2022-10-23T03:24:36.480Z,16.40
2022-10-23T03:27:38.282Z,16.40
2022-10-23T03:30:39.837Z,17.55
2022-10-23T03:33:41.595Z,16.87
2022-10-23T03:36:43.279Z,17.00
2022-10-23T03:39:44.856Z,16.50
2022-10-23T03:42:46.594Z,16.95
2022-10-23T03:45:48.187Z,16.70
2022-10-23T03:48:50.041Z,16.85
2022-10-23T03:51:52.905Z,16.30
2022-10-23T03:54:54.750Z,15.57
2022-10-23T03:57:56.401Z,15.70
2022-10-23T04:00:58.401Z,15.90
2022-10-23T04:04:00.444Z,16.25
2022-10-23T04:07:02.193Z,15.68
2022-10-23T04:10:04.861Z,16.37
2022-10-23T04:13:06.769Z,16.77
2022-10-23T04:16:08.362Z,16.05
2022-10-23T04:19:10.502Z,16.70
2022-10-23T04:22:12.140Z,16.98
2022-10-23T04:25:14.010Z,16.92
2022-10-23T04:28:15.957Z,17.62
2022-10-23T04:31:17.581Z,17.40
2022-10-23T04:34:19.404Z,18.55
2022-10-23T04:37:21.201Z,18.80
2022-10-23T04:40:22.981Z,18.10
2022-10-23T04:43:24.549Z,17.62
2022-10-23T04:46:26.375Z,17.60
2022-10-23T04:49:28.188Z,18.17
2022-10-23T04:52:29.752Z,17.98
2022-10-23T04:55:31.686Z,18.02
2022-10-23T04:58:33.263Z,18.08
2022-10-23T05:01:35.455Z,17.20
2022-10-23T05:04:37.213Z,17.33
2022-10-23T05:07:39.399Z,16.30
2022-10-23T05:10:41.764Z,15.50
2022-10-23T05:13:43.340Z,16.17
2022-10-23T05:17:14.600Z,15.88
2022-10-23T05:20:20.016Z,15.73
2022-10-23T05:23:24.241Z,16.75
2022-10-23T05:26:25.904Z,17.75
2022-10-23T05:29:27.446Z,17.05
2022-10-23T05:32:32.103Z,15.15
2022-10-23T05:35:34.043Z,15.75
2022-10-23T05:38:36.287Z,16.02
2022-10-23T05:41:37.979Z,14.65
2022-10-23T05:44:39.824Z,16.20
2022-10-23T05:47:44.542Z,14.98
2022-10-23T05:50:46.068Z,16.33
2022-10-23T05:53:52.345Z,14.77
2022-10-23T05:56:56.099Z,15.77
2022-10-23T05:59:57.933Z,15.00
2022-10-23T06:03:00.941Z,15.30
2022-10-23T06:06:02.728Z,15.98
2022-10-23T06:09:05.045Z,15.60
2022-10-23T06:12:07.045Z,15.93
2022-10-23T06:15:10.345Z,15.63
2022-10-23T06:18:12.809Z,15.63
2022-10-23T06:21:15.852Z,17.20
2022-10-23T06:24:17.420Z,15.05
2022-10-23T06:27:19.300Z,14.27
2022-10-23T06:30:20.937Z,14.85
2022-10-23T06:33:22.515Z,14.15
2022-10-23T06:36:25.021Z,14.77
2022-10-23T06:39:29.814Z,13.98
2022-10-23T06:42:33.600Z,14.68
2022-10-23T06:45:35.452Z,14.07
2022-10-23T06:48:37.005Z,12.48
2022-10-23T06:51:38.544Z,13.32
2022-10-23T06:54:40.447Z,15.68
2022-10-23T06:57:43.203Z,13.27
2022-10-23T07:00:45.099Z,13.15
2022-10-23T07:03:49.139Z,12.45
2022-10-23T07:06:50.728Z,11.95
2022-10-23T07:09:52.267Z,12.77
2022-10-23T07:12:54.374Z,12.73
2022-10-23T07:15:55.980Z,12.23
2022-10-23T07:19:01.037Z,12.98
2022-10-23T07:22:02.616Z,13.68
2022-10-23T07:25:04.577Z,12.48
2022-10-23T07:28:06.150Z,14.05
2022-10-23T07:31:08.741Z,12.65
2022-10-23T07:34:10.822Z,14.82
2022-10-23T07:37:12.425Z,13.32
2022-10-23T07:40:14.480Z,14.20
2022-10-23T07:43:18.466Z,14.52
2022-10-23T07:46:20.257Z,14.63
2022-10-23T07:49:22.046Z,14.38
2022-10-23T07:52:23.592Z,13.50
2022-10-23T07:55:25.356Z,12.23
2022-10-23T07:58:29.589Z,12.15
2022-10-23T08:01:34.072Z,12.45
2022-10-23T08:04:35.724Z,12.15
2022-10-23T08:07:37.536Z,12.15
2022-10-23T08:10:41.900Z,12.05
2022-10-23T08:13:44.357Z,11.73
2022-10-23T08:16:46.181Z,11.65
2022-10-23T08:19:48.543Z,12.18
2022-10-23T08:22:51.703Z,12.05
2022-10-23T08:26:05.418Z,11.90
2022-10-23T08:29:07.024Z,11.57
2022-10-23T08:32:08.570Z,11.18
2022-10-23T08:35:10.483Z,8.82
2022-10-23T08:38:12.103Z,9.05
2022-10-23T08:41:24.208Z,8.88
2022-10-23T08:44:45.088Z,9.30
2022-10-23T08:47:54.390Z,10.05
2022-10-23T08:51:42.320Z,9.45
2022-10-23T08:54:57.140Z,9.82
2022-10-23T08:58:07.689Z,9.00
2022-10-23T09:01:37.397Z,10.10
2022-10-23T09:04:39.703Z,8.85
2022-10-23T09:08:20.616Z,9.15
2022-10-23T09:11:41.645Z,9.30
2022-10-23T09:15:02.709Z,8.27
2022-10-23T09:18:17.430Z,8.38
2022-10-23T09:21:19.107Z,8.45
2022-10-23T09:24:23.692Z,8.45
2022-10-23T09:27:25.388Z,8.75
2022-10-23T09:30:33.785Z,9.48
2022-10-23T09:33:37.197Z,9.07
2022-10-23T09:36:50.625Z,9.10
2022-10-23T09:40:03.394Z,9.20
2022-10-23T09:43:15.513Z,9.57
2022-10-23T09:46:17.127Z,9.48
2022-10-23T09:49:24.829Z,9.18
2022-10-23T09:52:36.857Z,10.50
2022-10-23T09:55:39.594Z,10.80
2022-10-23T09:59:02.650Z,10.68
2022-10-23T10:02:04.709Z,11.10
2022-10-23T10:05:34.160Z,10.65
2022-10-23T10:08:44.634Z,10.32
2022-10-23T10:11:55.521Z,10.13
2022-10-23T10:15:13.437Z,11.57
2022-10-23T10:18:26.241Z,11.10
2022-10-23T10:21:36.831Z,11.77
2022-10-23T10:25:02.981Z,16.02
2022-10-23T10:28:27.759Z,18.23
2022-10-23T10:31:54.686Z,10.73
2022-10-23T10:35:21.763Z,14.50
2022-10-23T10:38:29.194Z,13.32
2022-10-23T10:41:52.533Z,12.98
2022-10-23T10:45:19.752Z,12.43
2022-10-23T10:48:49.708Z,13.32
2022-10-23T10:52:12.654Z,12.55
2022-10-23T10:55:28.330Z,12.80
2022-10-23T10:58:42.065Z,12.35
2022-10-23T11:02:00.253Z,12.57
2022-10-23T11:05:07.729Z,11.48
2022-10-23T11:11:35.116Z,12.43
2022-10-23T11:14:38.256Z,12.40
2022-10-23T11:17:43.663Z,11.68
2022-10-23T11:20:56.594Z,11.38
2022-10-23T11:24:18.880Z,12.05
2022-10-23T11:27:28.240Z,11.25
2022-10-23T11:30:43.802Z,11.27
2022-10-23T11:33:45.463Z,10.02
2022-10-23T11:36:52.759Z,10.95
2022-10-23T11:42:59.689Z,10.45
2022-10-23T11:46:29.574Z,11.55
2022-10-23T11:49:31.505Z,12.15
2022-10-23T11:52:45.569Z,11.35
2022-10-23T11:56:00.425Z,10.40
2022-10-23T11:59:30.649Z,10.57
2022-10-23T12:02:38.863Z,10.00
2022-10-23T12:05:42.522Z,10.55
2022-10-23T12:08:52.490Z,11.05
2022-10-23T12:12:09.026Z,10.05
2022-10-23T12:15:18.981Z,11.48
2022-10-23T12:18:20.935Z,10.30
2022-10-23T12:21:28.716Z,10.15
2022-10-23T12:24:40.134Z,9.65
2022-10-23T12:28:06.710Z,9.27
2022-10-23T12:31:37.468Z,9.02
2022-10-23T12:34:51.395Z,9.32
2022-10-23T12:38:14.467Z,9.15
2022-10-23T12:41:21.454Z,9.10
2022-10-23T12:47:27.762Z,9.02
2022-10-23T12:50:33.952Z,8.60
2022-10-23T12:53:36.163Z,8.43
2022-10-23T12:56:39.418Z,8.40
2022-10-23T12:59:42.794Z,12.15
2022-10-23T13:02:45.029Z,7.90
2022-10-23T13:05:47.406Z,9.05
2022-10-23T13:08:49.869Z,8.45
2022-10-23T13:11:52.388Z,7.53
2022-10-23T13:15:16.858Z,7.65
2022-10-23T13:18:19.067Z,8.15
2022-10-23T13:21:24.137Z,8.88
2022-10-23T13:24:28.894Z,8.95
2022-10-23T13:27:30.916Z,8.90
2022-10-23T13:30:40.695Z,8.82
2022-10-23T13:33:45.602Z,8.70
2022-10-23T13:37:22.374Z,8.55
2022-10-23T13:40:26.964Z,8.60
2022-10-23T13:43:31.093Z,8.52
2022-10-23T13:46:32.913Z,7.35
2022-10-23T13:49:34.920Z,9.30
2022-10-23T13:52:37.225Z,11.15
2022-10-23T13:55:42.827Z,15.98
2022-10-23T13:58:45.131Z,7.90
2022-10-23T14:01:49.295Z,7.40
2022-10-23T14:04:51.316Z,5.65
2022-10-23T14:07:56.012Z,6.15
2022-10-23T14:10:58.096Z,5.47
2022-10-23T14:14:00.704Z,6.32
2022-10-23T14:17:03.884Z,6.28
2022-10-23T14:20:06.542Z,5.50
2022-10-23T14:23:08.752Z,6.87
2022-10-23T14:26:13.872Z,5.55
2022-10-23T14:29:23.075Z,6.22
2022-10-23T14:32:26.181Z,6.82
2022-10-23T14:35:28.590Z,6.53
2022-10-23T14:38:30.732Z,6.10
2022-10-23T14:41:32.912Z,5.75
2022-10-23T14:44:35.177Z,6.97
2022-10-23T14:47:37.807Z,6.25
2022-10-23T14:50:44.342Z,6.72
2022-10-23T14:53:47.179Z,7.37
2022-10-23T14:56:48.868Z,7.12
2022-10-23T14:59:51.884Z,6.60
2022-10-23T15:02:54.370Z,6.20
2022-10-23T15:05:56.164Z,9.10
2022-10-23T15:08:58.207Z,10.50
2022-10-23T15:12:00.167Z,6.72
2022-10-23T15:15:03.116Z,13.50
2022-10-23T15:18:05.996Z,32.65
2022-10-23T15:21:09.881Z,31.95
2022-10-23T15:24:11.981Z,21.87
2022-10-23T15:27:14.617Z,13.80
2022-10-23T15:30:18.044Z,17.90
2022-10-23T15:33:21.192Z,8.93
2022-10-23T15:36:23.837Z,9.85
2022-10-23T15:39:29.203Z,12.60
2022-10-23T15:42:31.651Z,10.27
2022-10-23T15:45:34.055Z,8.48
2022-10-23T15:48:36.948Z,7.90
2022-10-23T15:51:40.920Z,11.63
2022-10-23T15:54:43.544Z,10.20
2022-10-23T15:57:45.718Z,13.70
2022-10-23T16:00:48.005Z,10.55
2022-10-23T16:03:50.805Z,8.23
2022-10-23T16:06:52.639Z,8.23
2022-10-23T16:09:55.240Z,6.68
2022-10-23T16:12:58.124Z,7.18
2022-10-23T16:16:04.250Z,7.95
2022-10-23T16:19:06.992Z,7.85
2022-10-23T16:22:09.191Z,7.75
2022-10-23T16:25:11.257Z,6.60
2022-10-23T16:28:13.931Z,5.72
2022-10-23T16:31:20.630Z,5.12
2022-10-23T16:34:24.120Z,5.00
2022-10-23T16:37:26.305Z,5.30
2022-10-23T16:40:28.916Z,5.22
2022-10-23T16:43:31.175Z,5.00
2022-10-23T16:46:39.021Z,4.85
2022-10-23T16:49:42.450Z,5.50
2022-10-23T16:52:44.921Z,4.95
2022-10-23T16:55:48.573Z,5.40
2022-10-23T16:58:51.324Z,5.62
2022-10-23T17:01:54.542Z,5.50
2022-10-23T17:04:56.955Z,5.55
2022-10-23T17:07:59.708Z,5.28
2022-10-23T17:11:19.133Z,5.82
2022-10-23T17:14:22.599Z,5.50
2022-10-23T17:17:25.046Z,5.05
2022-10-23T17:20:27.048Z,6.80
2022-10-23T17:23:29.710Z,5.50
2022-10-23T17:26:32.423Z,5.68
2022-10-23T17:29:35.138Z,5.37
2022-10-23T17:32:37.627Z,5.53
2022-10-23T17:35:40.397Z,5.95
2022-10-23T17:38:44.267Z,6.85
2022-10-23T17:41:47.137Z,8.30
2022-10-23T17:44:50.082Z,8.80
2022-10-23T17:47:53.356Z,7.40
2022-10-23T17:51:11.137Z,7.05
2022-10-23T17:54:14.641Z,7.93
2022-10-23T17:57:17.803Z,6.62
2022-10-23T18:00:21.734Z,6.68
2022-10-23T18:03:24.150Z,8.00
2022-10-23T18:06:35.534Z,9.07
2022-10-23T18:09:37.469Z,6.90
2022-10-23T18:12:41.171Z,6.65
2022-10-23T18:15:43.656Z,7.95
2022-10-23T18:18:54.592Z,7.22
2022-10-23T18:21:58.360Z,9.55
2022-10-23T18:25:02.175Z,12.00
2022-10-23T18:28:07.725Z,8.18
2022-10-23T18:31:12.306Z,14.02
2022-10-23T18:34:24.247Z,12.65
2022-10-23T18:37:30.286Z,15.52
2022-10-23T18:40:39.041Z,8.07
2022-10-23T18:43:44.069Z,11.63
2022-10-23T18:46:48.731Z,7.85
2022-10-23T18:49:51.577Z,8.13
2022-10-23T18:52:54.548Z,12.68
2022-10-23T18:55:57.494Z,14.45
2022-10-23T18:59:02.722Z,15.70
2022-10-23T19:02:09.262Z,13.48
2022-10-23T19:05:12.093Z,12.75
2022-10-23T19:08:14.755Z,11.70
2022-10-23T19:11:19.484Z,11.88
2022-10-23T19:14:22.203Z,12.77
2022-10-23T19:17:29.767Z,14.32
2022-10-23T19:20:32.694Z,17.87
2022-10-23T19:23:37.129Z,12.68
2022-10-23T19:26:41.829Z,11.10
2022-10-23T19:29:47.216Z,12.45
2022-10-23T19:32:50.474Z,12.18
2022-10-23T19:35:52.731Z,17.77
2022-10-23T19:38:55.313Z,19.37
2022-10-23T19:42:01.229Z,24.45
2022-10-23T19:45:04.645Z,22.27
2022-10-23T19:48:07.436Z,20.35
2022-10-23T19:51:12.521Z,21.02
2022-10-23T19:54:15.132Z,12.35
2022-10-23T19:57:20.548Z,11.82
2022-10-23T20:00:27.976Z,8.90
2022-10-23T20:03:30.337Z,8.77
2022-10-23T20:06:35.902Z,10.65
2022-10-23T20:09:38.645Z,35.30
2022-10-23T20:12:44.463Z,40.20
2022-10-23T20:15:55.477Z,38.92
2022-10-23T20:18:59.297Z,46.92
2022-10-23T20:22:02.234Z,21.12
2022-10-23T20:25:04.735Z,31.85
2022-10-23T20:28:14.274Z,37.85
2022-10-23T20:31:19.546Z,12.10
2022-10-23T20:34:22.315Z,30.52
2022-10-23T20:37:24.432Z,21.00
2022-10-23T20:40:26.629Z,12.63
2022-10-23T20:43:28.840Z,14.48
2022-10-23T20:46:31.319Z,14.23
2022-10-23T20:49:33.345Z,26.12
2022-10-23T20:52:35.626Z,21.73
2022-10-23T20:55:42.562Z,12.45
2022-10-23T20:58:44.380Z,12.18
2022-10-23T21:01:51.694Z,12.20
2022-10-23T21:07:55.490Z,13.52
2022-10-23T21:10:57.428Z,19.52
2022-10-23T21:14:02.284Z,11.88
2022-10-23T21:17:04.604Z,12.80
2022-10-23T21:20:06.958Z,15.73
2022-10-23T21:23:08.636Z,14.35
2022-10-23T21:26:10.683Z,13.68
2022-10-23T21:29:18.545Z,12.50
2022-10-23T21:32:21.253Z,11.45
2022-10-23T21:35:25.327Z,11.95
2022-10-23T21:38:30.286Z,11.07
2022-10-23T21:41:33.518Z,14.77
2022-10-23T21:44:35.234Z,13.32
2022-10-23T21:47:37.446Z,14.65
2022-10-23T21:50:39.439Z,11.98
2022-10-23T21:53:41.000Z,11.27
2022-10-23T21:56:56.043Z,11.43
2022-10-23T21:59:57.588Z,11.32
2022-10-23T22:02:59.327Z,11.43
2022-10-23T22:06:00.868Z,10.50
2022-10-23T22:09:04.544Z,11.12
2022-10-23T22:12:06.503Z,11.10
2022-10-23T22:15:09.128Z,10.73
2022-10-23T22:18:10.755Z,11.82
2022-10-23T22:21:15.865Z,10.02
2022-10-23T22:24:18.296Z,10.45
2022-10-23T22:27:20.109Z,12.88
2022-10-23T22:30:21.940Z,11.80
2022-10-23T22:33:23.540Z,11.15
2022-10-23T22:36:25.909Z,11.38
2022-10-23T22:39:27.975Z,10.63
2022-10-23T22:42:30.147Z,10.85
2022-10-23T22:45:32.044Z,10.20
2022-10-23T22:48:34.886Z,9.90
2022-10-23T22:51:38.572Z,10.45
2022-10-23T22:54:40.581Z,10.45
2022-10-23T22:57:42.388Z,9.93
2022-10-23T23:00:44.413Z,9.57
2022-10-23T23:03:46.560Z,10.02
2022-10-23T23:06:48.284Z,9.82
2022-10-23T23:09:49.876Z,9.88
2022-10-23T23:12:52.777Z,9.07
2022-10-23T23:15:55.154Z,9.05
2022-10-23T23:19:02.612Z,9.32
2022-10-23T23:25:06.321Z,8.80
2022-10-23T23:28:08.458Z,9.30
2022-10-23T23:31:26.680Z,9.65
2022-10-23T23:34:29.000Z,9.20
2022-10-23T23:37:30.610Z,9.45
2022-10-23T23:40:32.537Z,9.85
2022-10-23T23:43:34.099Z,9.40
2022-10-23T23:46:35.680Z,9.55
2022-10-23T23:49:37.499Z,9.55
2022-10-23T23:52:39.099Z,10.48
2022-10-23T23:55:40.706Z,9.05
2022-10-23T23:58:42.753Z,10.02
